Time;durP1;ratioP1;P1;durP2;ratioP2;P2;SDS_P1;SDS_P2;PMS_P1;PMS_P2;Temp;Humidity;BMP_temperature;BMP_pressure;BME280_temperature;BME280_humidity;BME280_pressure;Samples;Min_cycle;Max_cycle;Signal;HPM_P1;HPM_P2
2021/03/23 00:00:42;;;;;;;3.25;1.50;;;0.30;99.90;;;;;;5001823;28;20740;-73
2021/03/23 00:03:12;;;;;;;2.38;1.40;;;0.30;99.90;;;;;;5018924;28;20239;-73
2021/03/23 00:05:39;;;;;;;3.33;1.63;;;0.30;99.90;;;;;;5004143;28;20195;-72
2021/03/23 00:08:07;;;;;;;2.75;1.40;;;0.20;99.90;;;;;;5002851;28;20553;-72
2021/03/23 00:10:33;;;;;;;2.20;1.38;;;0.10;99.90;;;;;;5004007;28;20198;-73
2021/03/23 00:12:59;;;;;;;2.00;1.15;;;0.00;99.90;;;;;;5004061;28;20229;-72
2021/03/23 00:15:25;;;;;;;2.33;1.60;;;-0.10;99.90;;;;;;5003804;28;20685;-72
2021/03/23 00:17:51;;;;;;;1.70;1.38;;;-0.20;99.90;;;;;;5004662;28;20219;-73
2021/03/23 00:20:22;;;;;;;2.22;1.38;;;-0.30;99.90;;;;;;5002450;28;20214;-72
2021/03/23 00:22:48;;;;;;;1.75;1.38;;;-0.40;99.90;;;;;;5018967;28;20196;-72
2021/03/23 00:25:15;;;;;;;1.85;1.30;;;-0.50;99.90;;;;;;5001874;28;20562;-72
2021/03/23 00:27:40;;;;;;;2.03;1.30;;;-0.50;99.90;;;;;;4999238;28;20541;-72
2021/03/23 00:30:09;;;;;;;1.83;1.10;;;-0.50;99.90;;;;;;5001823;28;20673;-72
2021/03/23 00:32:35;;;;;;;1.92;1.27;;;-0.50;99.90;;;;;;5000536;28;20184;-72
2021/03/23 00:35:01;;;;;;;2.70;1.23;;;-0.50;99.90;;;;;;5004207;28;20701;-72
2021/03/23 00:37:28;;;;;;;3.17;1.33;;;-0.50;99.90;;;;;;5003815;28;20194;-72
2021/03/23 00:39:53;;;;;;;2.78;1.35;;;-0.50;99.90;;;;;;5004651;28;20194;-72
2021/03/23 00:42:19;;;;;;;2.15;1.13;;;-0.60;99.90;;;;;;5004408;28;20191;-72
2021/03/23 00:44:46;;;;;;;3.10;1.33;;;-0.70;99.90;;;;;;5002898;28;20197;-72
2021/03/23 00:47:12;;;;;;;1.63;1.35;;;-0.80;99.90;;;;;;5004361;28;20207;-72
2021/03/23 00:49:37;;;;;;;1.50;1.40;;;-0.80;99.90;;;;;;4999924;28;20605;-72
2021/03/23 00:52:03;;;;;;;2.20;1.20;;;-0.80;99.90;;;;;;5004135;28;20241;-72
2021/03/23 00:54:29;;;;;;;5.93;1.20;;;-0.80;99.90;;;;;;5002300;28;20209;-72
2021/03/23 00:56:56;;;;;;;2.10;1.55;;;-0.80;99.90;;;;;;5000693;28;20278;-72
2021/03/23 00:59:22;;;;;;;2.63;1.45;;;-0.80;99.90;;;;;;5001959;28;20199;-72
2021/03/23 01:01:48;;;;;;;2.58;1.40;;;-0.80;99.90;;;;;;5004417;28;20249;-72
2021/03/23 01:04:13;;;;;;;4.03;1.55;;;-0.80;99.90;;;;;;5005799;28;20314;-72
2021/03/23 01:06:39;;;;;;;2.55;1.30;;;-0.90;99.90;;;;;;5003477;28;20202;-72
2021/03/23 01:09:05;;;;;;;1.30;1.20;;;-0.90;99.90;;;;;;5007950;28;20669;-72
2021/03/23 01:11:31;;;;;;;2.10;1.50;;;-1.00;99.90;;;;;;5005986;28;20586;-72
2021/03/23 01:13:57;;;;;;;2.30;1.35;;;-1.00;99.90;;;;;;5004657;28;20926;-72
2021/03/23 01:16:23;;;;;;;2.40;1.50;;;-1.10;99.90;;;;;;5008502;28;20191;-72
2021/03/23 01:18:49;;;;;;;1.63;1.30;;;-1.20;99.90;;;;;;5004324;28;20280;-71
2021/03/23 01:21:15;;;;;;;3.20;1.83;;;-1.20;99.90;;;;;;5007508;28;20207;-71
2021/03/23 01:23:41;;;;;;;2.25;1.70;;;-1.30;99.90;;;;;;5004689;28;20236;-71
2021/03/23 01:26:07;;;;;;;1.73;1.50;;;-1.30;99.90;;;;;;5005977;28;20669;-71
2021/03/23 01:28:32;;;;;;;2.45;1.73;;;-1.40;99.90;;;;;;5002952;28;20203;-71
2021/03/23 01:30:58;;;;;;;4.18;2.20;;;-1.40;99.90;;;;;;5006064;28;20223;-71
2021/03/23 01:33:24;;;;;;;3.08;2.05;;;-1.50;99.90;;;;;;5005128;28;20199;-71
2021/03/23 01:35:50;;;;;;;3.45;2.10;;;-1.50;99.90;;;;;;5004487;28;20345;-71
2021/03/23 01:38:16;;;;;;;3.03;2.05;;;-1.60;99.90;;;;;;5007312;28;20202;-71
2021/03/23 01:40:42;;;;;;;4.57;2.47;;;-1.70;99.90;;;;;;5002110;28;20282;-73
2021/03/23 01:43:25;;;;;;;5.85;2.13;;;-1.70;99.90;;;;;;5007591;28;20286;-72
2021/03/23 01:45:51;;;;;;;2.45;1.65;;;-1.70;99.90;;;;;;5004065;28;20290;-73
2021/03/23 01:48:37;;;;;;;3.53;2.00;;;-1.70;99.90;;;;;;5005518;28;20285;-72
2021/03/23 01:51:07;;;;;;;3.85;1.70;;;-1.70;99.90;;;;;;5005753;28;20199;-73
2021/03/23 01:53:47;;;;;;;4.40;1.90;;;-1.70;99.90;;;;;;5004617;28;20206;-73
2021/03/23 01:56:15;;;;;;;2.53;1.85;;;-1.60;99.90;;;;;;5007873;28;20190;-73
2021/03/23 01:58:45;;;;;;;2.97;2.13;;;-1.50;99.90;;;;;;5003804;28;20202;-73
2021/03/23 02:01:14;;;;;;;5.00;2.15;;;-1.40;99.90;;;;;;5004218;28;20669;-73
2021/03/23 02:03:41;;;;;;;7.65;1.88;;;-1.30;99.90;;;;;;5004768;28;20234;-73
2021/03/23 02:06:26;;;;;;;2.20;1.75;;;-1.30;99.90;;;;;;5004365;28;20695;-73
2021/03/23 02:08:54;;;;;;;9.95;1.67;;;-1.20;99.90;;;;;;5007561;28;20233;-73
2021/03/23 02:11:20;;;;;;;3.53;1.90;;;-1.20;99.90;;;;;;5005367;28;20203;-73
2021/03/23 02:13:46;;;;;;;2.47;1.67;;;-1.30;99.90;;;;;;5002937;28;20332;-73
2021/03/23 02:16:12;;;;;;;6.07;1.92;;;-1.30;99.90;;;;;;5005652;28;20191;-73
2021/03/23 02:18:38;;;;;;;3.70;1.80;;;-1.30;99.90;;;;;;5004395;28;20206;-73
2021/03/23 02:21:05;;;;;;;2.83;1.70;;;-1.40;99.90;;;;;;5007099;28;20697;-73
2021/03/23 02:23:38;;;;;;;6.70;2.17;;;-1.40;99.90;;;;;;5007895;28;20218;-73
2021/03/23 02:26:06;;;;;;;4.80;2.03;;;-1.50;99.90;;;;;;5005885;28;20194;-73
2021/03/23 02:28:58;;;;;;;4.65;1.80;;;-1.50;99.90;;;;;;5005230;28;20210;-72
2021/03/23 02:31:46;;;;;;;2.83;1.63;;;-1.60;99.90;;;;;;5004996;28;20242;-72
2021/03/23 02:34:15;;;;;;;4.22;1.85;;;-1.70;99.90;;;;;;5003025;28;20207;-71
2021/03/23 02:36:42;;;;;;;4.38;1.95;;;-1.70;99.90;;;;;;5004560;28;20227;-73
2021/03/23 02:39:42;;;;;;;3.03;2.00;;;-1.70;99.90;;;;;;5004349;28;20210;-73
2021/03/23 02:42:08;;;;;;;1.90;1.70;;;-1.80;99.90;;;;;;4972135;28;20293;-73
2021/03/23 02:44:41;;;;;;;6.13;2.08;;;-1.80;99.90;;;;;;5005139;28;20755;-73
2021/03/23 02:47:08;;;;;;;4.55;2.00;;;-1.80;99.90;;;;;;5022966;28;20199;-73
2021/03/23 02:49:33;;;;;;;9.73;2.00;;;-1.80;99.90;;;;;;5002787;28;20222;-73
2021/03/23 02:51:59;;;;;;;3.88;1.75;;;-1.80;99.90;;;;;;5006622;28;20700;-72
2021/03/23 02:54:25;;;;;;;6.43;2.13;;;-1.80;99.90;;;;;;5004712;28;20214;-73
2021/03/23 02:56:51;;;;;;;4.78;2.00;;;-1.80;99.90;;;;;;5005174;28;20196;-73
2021/03/23 02:59:17;;;;;;;4.85;2.00;;;-1.80;99.90;;;;;;5005319;28;20203;-73
2021/03/23 03:01:42;;;;;;;3.28;2.30;;;-1.90;99.90;;;;;;5001556;28;20297;-73
2021/03/23 03:04:08;;;;;;;3.10;1.60;;;-1.90;99.90;;;;;;5006935;28;20222;-73
2021/03/23 03:06:34;;;;;;;3.63;1.88;;;-2.00;99.90;;;;;;5005289;28;20226;-72
2021/03/23 03:08:59;;;;;;;5.15;2.00;;;-2.10;99.90;;;;;;5005352;28;20199;-73
2021/03/23 03:11:25;;;;;;;3.20;1.80;;;-2.10;99.90;;;;;;5007592;28;20190;-72
2021/03/23 03:13:51;;;;;;;2.50;1.77;;;-2.10;99.90;;;;;;5004428;28;21601;-73
2021/03/23 03:16:17;;;;;;;4.25;2.33;;;-2.10;99.90;;;;;;5004273;28;20214;-72
2021/03/23 03:18:44;;;;;;;4.45;1.77;;;-2.00;99.90;;;;;;5005016;28;20633;-72
2021/03/23 03:21:09;;;;;;;4.15;2.00;;;-2.00;99.90;;;;;;5003330;28;20226;-73
2021/03/23 03:23:35;;;;;;;5.88;1.83;;;-2.00;99.90;;;;;;5005304;28;20241;-73
2021/03/23 03:26:02;;;;;;;6.63;2.00;;;-2.10;99.90;;;;;;5004854;28;20195;-73
2021/03/23 03:28:28;;;;;;;2.95;1.83;;;-2.10;99.90;;;;;;5005068;28;20217;-72
2021/03/23 03:30:54;;;;;;;2.92;1.65;;;-2.20;99.90;;;;;;5000348;28;20662;-73
2021/03/23 03:33:21;;;;;;;3.90;1.63;;;-2.20;99.90;;;;;;5005246;28;20270;-73
2021/03/23 03:35:49;;;;;;;14.20;1.90;;;-2.20;99.90;;;;;;5002444;28;20621;-73
2021/03/23 03:38:17;;;;;;;7.57;1.75;;;-2.20;99.90;;;;;;5019245;28;20187;-73
2021/03/23 03:40:46;;;;;;;3.00;1.52;;;-2.30;99.90;;;;;;5003814;28;20195;-73
2021/03/23 03:43:13;;;;;;;2.50;1.50;;;-2.40;99.90;;;;;;5005248;28;20202;-73
2021/03/23 03:45:39;;;;;;;3.80;1.67;;;-2.40;99.90;;;;;;5004306;28;20203;-73
2021/03/23 03:48:05;;;;;;;2.17;1.65;;;-2.40;99.90;;;;;;5004747;28;20244;-72
2021/03/23 03:50:31;;;;;;;4.15;2.20;;;-2.50;99.90;;;;;;5002994;28;20191;-73
2021/03/23 03:52:57;;;;;;;3.13;1.80;;;-2.40;99.90;;;;;;5005124;28;20202;-72
2021/03/23 03:55:27;;;;;;;3.47;1.48;;;-2.50;99.90;;;;;;5003733;28;20557;-73
2021/03/23 03:57:53;;;;;;;4.75;1.88;;;-2.50;99.90;;;;;;5020902;28;20263;-72
2021/03/23 04:00:21;;;;;;;3.33;1.67;;;-2.50;99.90;;;;;;5003311;28;20195;-72
2021/03/23 04:02:47;;;;;;;2.72;1.67;;;-2.50;99.90;;;;;;5019092;28;20321;-72
2021/03/23 04:05:22;;;;;;;6.88;1.80;;;-2.50;99.90;;;;;;5006011;28;20285;-72
2021/03/23 04:07:48;;;;;;;3.35;1.80;;;-2.50;99.90;;;;;;5003630;28;20197;-73
2021/03/23 04:10:15;;;;;;;2.28;1.88;;;-2.60;99.90;;;;;;5004022;28;20230;-73
2021/03/23 04:12:41;;;;;;;3.83;1.83;;;-2.60;99.90;;;;;;5003249;28;20195;-72
2021/03/23 04:15:07;;;;;;;3.03;1.90;;;-2.60;99.90;;;;;;5021156;28;20327;-73
2021/03/23 04:17:33;;;;;;;2.50;1.38;;;-2.50;99.90;;;;;;5004570;28;20210;-73
2021/03/23 04:20:00;;;;;;;3.50;1.90;;;-2.50;99.90;;;;;;5001590;28;20686;-72
2021/03/23 04:22:26;;;;;;;2.80;1.67;;;-2.60;99.90;;;;;;4998836;28;20203;-72
2021/03/23 04:24:51;;;;;;;2.20;1.55;;;-2.60;99.90;;;;;;4999787;28;20260;-72
2021/03/23 04:27:17;;;;;;;2.17;1.70;;;-2.60;99.90;;;;;;5003052;28;20282;-73
2021/03/23 04:29:43;;;;;;;4.32;1.80;;;-2.60;99.90;;;;;;4998781;28;20217;-72
2021/03/23 04:32:09;;;;;;;4.05;1.77;;;-2.70;99.90;;;;;;5001725;28;20557;-72
2021/03/23 04:34:34;;;;;;;3.92;1.70;;;-2.80;99.90;;;;;;5000744;28;20202;-72
2021/03/23 04:37:00;;;;;;;2.10;1.55;;;-2.90;99.90;;;;;;4998611;28;20240;-72
2021/03/23 04:39:26;;;;;;;4.57;1.80;;;-2.90;99.90;;;;;;5000894;28;20203;-72
2021/03/23 04:41:51;;;;;;;4.05;2.20;;;-2.90;99.90;;;;;;4998765;28;20565;-73
2021/03/23 04:44:17;;;;;;;3.45;1.80;;;-2.90;99.90;;;;;;5000436;28;20256;-73
2021/03/23 04:46:43;;;;;;;6.25;2.05;;;-2.80;99.90;;;;;;5002809;28;20660;-73
2021/03/23 04:49:08;;;;;;;5.55;2.00;;;-2.80;99.90;;;;;;5002131;28;20252;-72
2021/03/23 04:51:34;;;;;;;3.20;1.92;;;-2.90;99.90;;;;;;5003284;28;20199;-72
2021/03/23 04:54:04;;;;;;;6.03;1.90;;;-2.90;99.90;;;;;;5001479;28;20697;-72
2021/03/23 04:56:33;;;;;;;4.47;1.75;;;-2.90;99.90;;;;;;5002306;28;20647;-72
2021/03/23 04:58:59;;;;;;;2.10;1.60;;;-2.90;99.90;;;;;;5002071;28;20198;-72
2021/03/23 05:01:26;;;;;;;2.67;1.67;;;-2.90;99.90;;;;;;5000390;28;20341;-73
2021/03/23 05:03:57;;;;;;;3.03;1.90;;;-2.90;99.90;;;;;;5000615;28;20233;-72
2021/03/23 05:06:23;;;;;;;5.20;1.88;;;-2.90;99.90;;;;;;4999880;28;20676;-73
2021/03/23 05:08:49;;;;;;;4.40;1.75;;;-2.80;99.90;;;;;;5002612;28;20556;-72
2021/03/23 05:11:18;;;;;;;2.22;1.50;;;-2.80;99.90;;;;;;5002226;28;20228;-72
2021/03/23 05:13:44;;;;;;;3.33;1.60;;;-2.70;99.90;;;;;;5003642;28;20252;-73
2021/03/23 05:16:10;;;;;;;2.65;1.63;;;-2.70;99.90;;;;;;5000548;28;20561;-73
2021/03/23 05:18:35;;;;;;;7.30;1.63;;;-2.60;99.90;;;;;;5002417;28;20198;-73
2021/03/23 05:21:01;;;;;;;3.42;1.80;;;-2.50;99.90;;;;;;5004250;28;20686;-72
2021/03/23 05:23:27;;;;;;;2.22;1.67;;;-2.50;99.90;;;;;;4998834;28;20238;-73
2021/03/23 05:25:53;;;;;;;5.30;1.80;;;-2.40;99.90;;;;;;5001180;28;20245;-73
2021/03/23 05:28:20;;;;;;;2.88;1.73;;;-2.30;99.90;;;;;;5003244;28;20199;-72
2021/03/23 05:30:46;;;;;;;2.60;1.70;;;-2.30;99.90;;;;;;5003034;28;20192;-73
2021/03/23 05:33:13;;;;;;;5.47;2.08;;;-2.20;99.90;;;;;;5000122;28;20258;-73
2021/03/23 05:35:40;;;;;;;3.60;1.75;;;-2.10;99.90;;;;;;5002703;28;20250;-73
2021/03/23 05:38:07;;;;;;;5.80;2.25;;;-2.00;99.90;;;;;;5003139;28;20687;-73
2021/03/23 05:40:37;;;;;;;2.60;1.73;;;-2.00;99.90;;;;;;5002361;28;20203;-73
2021/03/23 05:43:18;;;;;;;4.97;2.10;;;-1.90;99.90;;;;;;5005129;28;20214;-73
2021/03/23 05:45:45;;;;;;;5.35;2.30;;;-1.80;99.90;;;;;;5005427;28;20606;-73
2021/03/23 05:48:19;;;;;;;6.72;2.08;;;-1.70;99.90;;;;;;5005437;28;20215;-73
2021/03/23 05:51:16;;;;;;;2.63;1.52;;;-1.60;99.90;;;;;;5002253;28;20302;-73
2021/03/23 05:54:09;;;;;;;6.63;2.10;;;-1.50;99.90;;;;;;5001457;28;20234;-75
2021/03/23 05:56:39;;;;;;;8.05;2.10;;;-1.40;99.90;;;;;;4999392;28;20282;-73
2021/03/23 05:59:30;;;;;;;4.05;2.22;;;-1.30;99.90;;;;;;5000914;28;20207;-73
2021/03/23 06:02:03;;;;;;;4.95;1.90;;;-1.20;99.90;;;;;;5004420;28;20215;-73
2021/03/23 06:04:44;;;;;;;4.63;1.90;;;-1.10;99.90;;;;;;4999163;28;20226;-73
2021/03/23 06:07:13;;;;;;;5.50;2.33;;;-1.10;99.90;;;;;;4999377;28;20199;-72
2021/03/23 06:09:41;;;;;;;9.30;2.08;;;-1.00;99.90;;;;;;5000663;28;20215;-73
2021/03/23 06:12:12;;;;;;;11.55;2.85;;;-0.90;99.90;;;;;;5020264;28;20661;-73
2021/03/23 06:14:54;;;;;;;94.82;44.03;;;-0.90;99.90;;;;;;4998804;28;20221;-73
2021/03/23 06:17:35;;;;;;;74.72;32.58;;;-0.80;99.90;;;;;;4999942;28;20234;-73
2021/03/23 06:20:28;;;;;;;14.43;8.25;;;-0.80;99.90;;;;;;5001347;28;20206;-73
2021/03/23 06:23:12;;;;;;;9.00;4.88;;;-0.80;99.90;;;;;;5000701;28;20203;-72
2021/03/23 06:25:41;;;;;;;8.50;4.78;;;-0.70;99.90;;;;;;5000474;28;20203;-73
2021/03/23 06:28:25;;;;;;;7.43;3.15;;;-0.70;99.90;;;;;;4998311;28;20214;-73
2021/03/23 06:31:18;;;;;;;6.15;3.50;;;-0.60;99.90;;;;;;4997022;28;20245;-73
2021/03/23 06:33:43;;;;;;;9.15;3.88;;;-0.40;99.90;;;;;;5002032;28;20308;-72
2021/03/23 06:36:20;;;;;;;8.60;3.13;;;-0.30;99.90;;;;;;4997141;28;20213;-72
2021/03/23 06:38:46;;;;;;;10.15;3.08;;;-0.30;99.90;;;;;;4992441;28;20299;-72
2021/03/23 06:41:20;;;;;;;12.18;3.08;;;-0.20;99.90;;;;;;4990083;28;20627;-72
2021/03/23 06:43:49;;;;;;;5.45;2.85;;;-0.10;99.90;;;;;;5016271;28;20211;-72
2021/03/23 06:46:26;;;;;;;13.18;2.80;;;0.00;99.90;;;;;;5000617;28;20230;-72
2021/03/23 06:49:13;;;;;;;6.90;2.40;;;0.10;99.90;;;;;;4996785;28;20228;-73
2021/03/23 06:52:00;;;;;;;3.67;2.33;;;0.30;99.90;;;;;;4983886;28;20265;-72
2021/03/23 06:54:37;;;;;;;9.93;2.40;;;0.40;99.90;;;;;;5018118;28;20218;-73
2021/03/23 06:57:16;;;;;;;7.30;2.72;;;0.50;99.90;;;;;;5001923;28;20532;-72
2021/03/23 07:00:00;;;;;;;5.00;2.55;;;0.60;99.90;;;;;;5013236;28;20242;-72
2021/03/23 07:02:42;;;;;;;13.13;3.17;;;0.80;99.90;;;;;;4996559;28;20206;-72
2021/03/23 07:05:22;;;;;;;10.23;3.05;;;0.90;99.90;;;;;;4996245;28;20732;-73
2021/03/23 07:07:57;;;;;;;13.90;4.60;;;1.10;99.90;;;;;;5012574;28;20256;-73
2021/03/23 07:10:32;;;;;;;4.13;2.40;;;1.20;99.90;;;;;;5000614;28;20241;-72
2021/03/23 07:12:58;;;;;;;13.50;2.20;;;1.20;99.90;;;;;;4999804;28;20775;-72
2021/03/23 07:15:30;;;;;;;5.20;2.22;;;1.40;99.90;;;;;;5001018;28;20282;-73
2021/03/23 07:17:57;;;;;;;5.10;2.08;;;1.40;99.90;;;;;;4998446;28;20198;-73
2021/03/23 07:20:23;;;;;;;8.18;2.20;;;1.60;99.90;;;;;;5001866;28;20334;-73
2021/03/23 07:22:52;;;;;;;6.88;2.30;;;1.90;99.90;;;;;;5017776;28;20611;-72
2021/03/23 07:25:33;;;;;;;6.18;2.22;;;2.10;99.90;;;;;;4999381;28;20205;-73
2021/03/23 07:28:29;;;;;;;3.80;2.00;;;2.10;99.90;;;;;;4998065;28;20562;-73
2021/03/23 07:31:16;;;;;;;3.45;2.00;;;2.30;99.90;;;;;;4999222;28;20206;-73
2021/03/23 07:34:06;;;;;;;3.08;2.10;;;2.40;99.90;;;;;;5017958;28;20424;-73
2021/03/23 07:36:42;;;;;;;5.88;2.05;;;2.60;99.90;;;;;;4998302;28;20568;-73
2021/03/23 07:39:34;;;;;;;4.22;2.05;;;2.80;99.90;;;;;;4994099;28;20206;-73
2021/03/23 07:42:24;;;;;;;4.50;2.25;;;3.00;99.90;;;;;;4988327;28;20213;-73
2021/03/23 07:45:11;;;;;;;4.63;2.72;;;3.10;99.90;;;;;;4999864;28;20197;-73
2021/03/23 07:47:50;;;;;;;4.95;1.90;;;3.40;99.90;;;;;;5003261;28;20532;-74
2021/03/23 07:50:28;;;;;;;4.75;2.38;;;3.60;99.90;;;;;;4996959;28;20230;-74
2021/03/23 07:53:17;;;;;;;5.30;2.20;;;3.60;99.90;;;;;;5001058;28;20649;-74
2021/03/23 07:55:45;;;;;;;3.85;2.10;;;3.80;99.90;;;;;;4996097;28;20262;-73
2021/03/23 07:59:01;;;;;;;3.42;1.85;;;3.90;99.90;;;;;;4995884;28;20194;-74
2021/03/23 08:01:42;;;;;;;9.10;2.10;;;4.20;99.90;;;;;;4971723;28;20223;-73
2021/03/23 08:04:15;;;;;;;6.40;2.22;;;4.40;99.90;;;;;;4999957;28;20226;-74
2021/03/23 08:06:56;;;;;;;3.45;1.90;;;4.60;99.90;;;;;;4995098;28;20600;-73
2021/03/23 08:09:40;;;;;;;3.40;1.90;;;4.70;99.90;;;;;;4998085;28;20477;-74
2021/03/23 08:12:24;;;;;;;2.58;1.85;;;5.00;99.90;;;;;;4994324;28;20209;-73
2021/03/23 08:15:09;;;;;;;4.25;2.10;;;5.20;99.90;;;;;;4997510;28;20658;-74
2021/03/23 08:18:07;;;;;;;6.75;2.40;;;5.30;99.90;;;;;;4994005;28;20186;-73
2021/03/23 08:20:57;;;;;;;4.05;2.17;;;5.40;99.90;;;;;;4996392;28;20207;-70
2021/03/23 08:23:53;;;;;;;5.72;2.42;;;5.50;99.90;;;;;;4999837;28;20218;-71
2021/03/23 08:26:34;;;;;;;3.78;1.75;;;5.80;99.90;;;;;;4995139;28;20209;-71
2021/03/23 08:29:19;;;;;;;5.82;1.90;;;6.00;99.90;;;;;;4992343;28;20700;-74
2021/03/23 08:32:00;;;;;;;5.85;1.95;;;6.30;99.90;;;;;;4997530;28;20374;-71
2021/03/23 08:34:58;;;;;;;6.28;1.85;;;6.50;99.90;;;;;;4989460;28;20241;-73
2021/03/23 08:37:41;;;;;;;9.60;2.10;;;6.70;99.90;;;;;;4986416;28;20207;-71
2021/03/23 08:40:07;;;;;;;6.93;2.10;;;6.90;99.90;;;;;;4997177;28;20711;-71
2021/03/23 08:42:33;;;;;;;8.45;2.28;;;7.10;99.90;;;;;;4999747;28;20199;-71
2021/03/23 08:45:24;;;;;;;14.73;2.08;;;7.30;99.90;;;;;;5000086;28;20202;-71
2021/03/23 08:48:05;;;;;;;4.18;1.80;;;7.60;99.90;;;;;;4991143;28;20258;-71
2021/03/23 08:50:42;;;;;;;2.80;2.03;;;7.90;99.90;;;;;;4999586;28;20626;-72
2021/03/23 08:53:36;;;;;;;4.78;1.60;;;8.30;99.90;;;;;;4997961;28;20213;-71
2021/03/23 08:56:04;;;;;;;4.00;1.60;;;8.70;99.90;;;;;;4999816;28;20749;-71
2021/03/23 08:59:12;;;;;;;4.93;1.70;;;9.00;99.90;;;;;;4998407;28;20200;-71
2021/03/23 09:01:37;;;;;;;2.58;1.60;;;9.30;99.90;;;;;;4998306;28;20563;-71
2021/03/23 09:04:03;;;;;;;4.07;1.90;;;9.50;99.90;;;;;;4996137;28;20702;-71
2021/03/23 09:06:45;;;;;;;2.85;1.92;;;9.50;99.90;;;;;;4998567;28;20214;-72
2021/03/23 09:09:29;;;;;;;1.60;1.30;;;9.50;99.90;;;;;;5000331;28;20254;-72
2021/03/23 09:12:01;;;;;;;4.18;1.05;;;9.70;99.90;;;;;;5000281;28;20739;-71
2021/03/23 09:14:28;;;;;;;3.38;1.10;;;10.00;99.90;;;;;;4997055;28;20210;-71
2021/03/23 09:17:14;;;;;;;1.30;1.10;;;10.20;99.90;;;;;;5002331;28;20496;-71
2021/03/23 09:19:50;;;;;;;1.52;1.08;;;10.40;99.90;;;;;;5000704;28;20299;-71
2021/03/23 09:22:26;;;;;;;2.45;1.00;;;10.50;99.90;;;;;;5001041;28;20190;-71
2021/03/23 09:25:27;;;;;;;0.80;0.80;;;10.70;99.90;;;;;;4997369;28;20209;-71
2021/03/23 09:27:52;;;;;;;1.67;0.90;;;11.00;99.90;;;;;;4979672;28;20689;-72
2021/03/23 09:30:39;;;;;;;0.90;0.80;;;11.20;97.40;;;;;;4994428;28;20211;-72
2021/03/23 09:33:25;;;;;;;3.10;1.13;;;11.20;97.50;;;;;;5012455;28;20198;-72
2021/03/23 09:36:18;;;;;;;1.27;1.00;;;11.40;96.30;;;;;;4994932;28;20222;-73
2021/03/23 09:39:15;;;;;;;1.63;1.02;;;11.60;96.10;;;;;;4997146;28;20199;-72
2021/03/23 09:42:01;;;;;;;1.58;1.20;;;11.70;95.60;;;;;;4995545;28;20238;-72
2021/03/23 09:44:28;;;;;;;4.93;1.27;;;12.00;95.80;;;;;;5015678;28;20719;-72
2021/03/23 09:46:56;;;;;;;3.50;1.27;;;12.20;94.50;;;;;;4996600;28;20209;-72
2021/03/23 09:49:45;;;;;;;1.88;1.10;;;12.10;93.40;;;;;;4994422;28;20207;-73
2021/03/23 09:52:27;;;;;;;4.05;1.10;;;11.90;94.80;;;;;;4998838;28;20206;-72
2021/03/23 09:55:00;;;;;;;1.92;1.17;;;12.20;94.20;;;;;;4998145;28;20225;-73
2021/03/23 09:57:30;;;;;;;3.00;1.52;;;12.20;94.40;;;;;;4999568;28;20717;-74
2021/03/23 10:00:00;;;;;;;7.20;1.20;;;12.20;93.30;;;;;;4995966;28;20221;-72
2021/03/23 10:02:32;;;;;;;4.50;1.02;;;12.50;94.00;;;;;;4998601;28;20780;-72
2021/03/23 10:05:35;;;;;;;3.13;1.05;;;12.60;92.20;;;;;;4995212;28;20238;-72
2021/03/23 10:08:33;;;;;;;1.42;0.90;;;12.60;92.10;;;;;;4961808;28;20936;-72
2021/03/23 10:11:15;;;;;;;10.23;1.10;;;12.40;91.60;;;;;;4957627;28;20203;-72
2021/03/23 10:13:51;;;;;;;4.13;0.93;;;12.40;92.60;;;;;;4976097;28;20196;-71
2021/03/23 10:16:36;;;;;;;1.88;1.00;;;12.60;92.30;;;;;;4978269;28;20215;-71
2021/03/23 10:19:09;;;;;;;3.25;1.25;;;12.80;92.10;;;;;;4974547;28;20486;-72
2021/03/23 10:21:39;;;;;;;3.03;1.02;;;13.00;91.90;;;;;;4980603;28;20286;-72
2021/03/23 10:24:15;;;;;;;1.73;1.00;;;13.20;90.50;;;;;;4980357;28;20720;-72
2021/03/23 10:26:46;;;;;;;6.38;1.00;;;13.40;91.00;;;;;;4979201;28;20369;-72
2021/03/23 10:29:18;;;;;;;1.92;0.73;;;13.70;90.50;;;;;;4963699;28;20223;-72
2021/03/23 10:31:52;;;;;;;3.50;0.80;;;13.90;89.70;;;;;;4977486;28;20895;-72
2021/03/23 10:34:31;;;;;;;2.60;0.85;;;14.10;89.10;;;;;;4978609;28;20693;-72
2021/03/23 10:37:07;;;;;;;0.75;0.75;;;14.40;90.60;;;;;;4981035;28;20310;-72
2021/03/23 10:39:41;;;;;;;1.70;0.70;;;14.50;87.20;;;;;;4980204;28;20290;-71
2021/03/23 10:42:25;;;;;;;6.72;0.80;;;14.40;88.30;;;;;;4983736;28;20404;-72
2021/03/23 10:45:08;;;;;;;2.22;0.80;;;14.40;84.60;;;;;;4999370;28;20240;-72
2021/03/23 10:47:38;;;;;;;3.08;0.80;;;14.70;86.00;;;;;;4998710;28;20239;-72
2021/03/23 10:50:26;;;;;;;1.08;0.70;;;14.90;82.80;;;;;;4996560;28;20214;-72
2021/03/23 10:53:07;;;;;;;0.88;0.88;;;15.20;80.50;;;;;;4997254;28;20597;-75
2021/03/23 10:55:41;;;;;;;1.08;0.80;;;15.30;82.60;;;;;;4997913;28;20203;-72
2021/03/23 10:58:19;;;;;;;1.15;0.65;;;15.30;81.30;;;;;;5008487;28;20278;-72
2021/03/23 11:00:47;;;;;;;0.95;0.80;;;15.40;81.10;;;;;;4996556;28;20194;-72
2021/03/23 11:03:18;;;;;;;2.15;1.20;;;15.30;81.40;;;;;;4990151;28;20254;-72
2021/03/23 11:05:47;;;;;;;1.67;0.80;;;15.40;79.20;;;;;;5013290;28;20195;-73
2021/03/23 11:08:14;;;;;;;3.35;0.90;;;15.40;79.60;;;;;;4994836;28;20242;-73
2021/03/23 11:10:41;;;;;;;1.85;1.35;;;15.50;79.00;;;;;;5008931;28;20728;-73
2021/03/23 11:13:07;;;;;;;8.25;1.05;;;15.30;78.10;;;;;;4999185;28;20194;-73
2021/03/23 11:15:41;;;;;;;3.22;0.90;;;15.20;80.40;;;;;;4995734;28;20200;-72
2021/03/23 11:18:18;;;;;;;0.70;0.70;;;15.20;77.50;;;;;;4995870;28;20189;-73
2021/03/23 11:20:45;;;;;;;2.50;0.80;;;15.50;81.00;;;;;;4993257;28;20731;-73
2021/03/23 11:23:31;;;;;;;1.05;0.80;;;15.60;79.40;;;;;;4993873;28;20213;-73
2021/03/23 11:25:57;;;;;;;1.27;0.70;;;15.50;76.00;;;;;;4999538;28;20665;-73
2021/03/23 11:28:23;;;;;;;4.22;0.80;;;15.30;77.80;;;;;;4996081;28;20297;-72
2021/03/23 11:30:49;;;;;;;1.88;0.70;;;15.40;79.50;;;;;;4998320;28;20210;-73
2021/03/23 11:33:16;;;;;;;1.77;0.90;;;15.70;76.80;;;;;;4996622;28;20202;-73
2021/03/23 11:35:46;;;;;;;1.13;0.70;;;15.60;78.90;;;;;;4995994;28;20203;-73
2021/03/23 11:38:13;;;;;;;5.35;0.80;;;15.50;76.70;;;;;;4992115;28;20649;-73
2021/03/23 11:40:40;;;;;;;6.53;0.70;;;15.80;80.40;;;;;;4999275;28;20230;-73
2021/03/23 11:43:07;;;;;;;0.75;0.60;;;15.80;77.10;;;;;;4996293;28;20933;-73
2021/03/23 11:45:42;;;;;;;1.67;0.80;;;16.30;79.40;;;;;;4990145;28;20610;-73
2021/03/23 11:48:11;;;;;;;1.95;0.73;;;16.60;78.60;;;;;;4994610;28;20404;-73
2021/03/23 11:50:39;;;;;;;1.52;1.02;;;16.40;74.10;;;;;;4990943;28;20777;-73
2021/03/23 11:53:04;;;;;;;3.35;0.90;;;16.60;77.20;;;;;;4996997;28;20234;-73
2021/03/23 11:55:36;;;;;;;2.75;1.17;;;16.90;74.80;;;;;;4996992;28;20286;-73
2021/03/23 11:58:03;;;;;;;6.07;1.20;;;16.80;72.10;;;;;;4996123;28;20205;-73
2021/03/23 12:00:31;;;;;;;1.95;1.23;;;16.80;75.80;;;;;;4995702;28;20194;-73
2021/03/23 12:03:01;;;;;;;2.00;1.10;;;16.90;73.30;;;;;;4992566;28;20263;-72
2021/03/23 12:05:28;;;;;;;1.60;1.00;;;16.80;72.00;;;;;;4996631;28;20703;-71
2021/03/23 12:08:13;;;;;;;2.83;1.20;;;17.10;89.60;;;;;;4991297;28;20937;-71
2021/03/23 12:11:02;;;;;;;2.78;1.20;;;18.00;77.60;;;;;;4992305;28;20211;-72
2021/03/23 12:14:00;;;;;;;3.38;1.38;;;17.90;76.20;;;;;;4998939;28;20230;-72
2021/03/23 12:16:41;;;;;;;2.67;1.42;;;18.40;73.20;;;;;;4990616;28;20203;-72
2021/03/23 12:19:08;;;;;;;2.30;1.30;;;18.90;70.80;;;;;;4996058;28;20198;-72
2021/03/23 12:21:35;;;;;;;6.95;1.75;;;18.00;68.50;;;;;;4997191;28;20230;-71
2021/03/23 12:24:02;;;;;;;5.25;1.70;;;17.30;68.50;;;;;;4993799;28;20599;-73
2021/03/23 12:26:28;;;;;;;1.58;1.13;;;17.40;77.30;;;;;;4993213;28;20205;-71
2021/03/23 12:28:53;;;;;;;5.22;1.50;;;17.60;68.90;;;;;;4993516;28;20974;-72
2021/03/23 12:31:19;;;;;;;2.85;1.23;;;17.80;75.00;;;;;;4996566;28;20265;-72
2021/03/23 12:33:46;;;;;;;6.15;1.60;;;17.70;69.80;;;;;;4994320;28;20203;-72
2021/03/23 12:36:14;;;;;;;3.55;1.35;;;17.50;72.10;;;;;;4999956;28;20549;-71
2021/03/23 12:38:42;;;;;;;1.92;1.20;;;17.10;72.10;;;;;;4992144;28;20202;-71
2021/03/23 12:41:16;;;;;;;4.18;0.98;;;17.00;70.80;;;;;;4993904;28;20744;-72
2021/03/23 12:43:42;;;;;;;1.65;0.98;;;16.70;73.20;;;;;;4997498;28;20213;-71
2021/03/23 12:46:09;;;;;;;1.33;1.00;;;16.50;74.10;;;;;;4998728;28;20300;-71
2021/03/23 12:48:37;;;;;;;3.22;1.17;;;16.70;72.00;;;;;;4994776;28;20234;-71
2021/03/23 12:51:03;;;;;;;1.45;1.10;;;16.70;72.50;;;;;;4986321;28;20213;-72
2021/03/23 12:53:29;;;;;;;1.75;1.00;;;16.80;72.40;;;;;;4974296;28;20941;-72
2021/03/23 12:55:54;;;;;;;3.80;1.27;;;16.70;73.80;;;;;;4996892;28;20249;-72
2021/03/23 12:58:29;;;;;;;2.05;1.00;;;16.50;71.80;;;;;;4997530;28;20280;-72
2021/03/23 13:00:55;;;;;;;2.42;1.20;;;16.20;73.30;;;;;;5001226;28;20271;-73
2021/03/23 13:03:21;;;;;;;7.80;0.80;;;15.70;75.00;;;;;;5001471;28;20387;-73
2021/03/23 13:05:49;;;;;;;3.20;0.98;;;15.80;75.80;;;;;;5002680;28;20199;-73
2021/03/23 13:08:24;;;;;;;1.63;0.93;;;15.90;76.10;;;;;;4997933;28;20207;-73
2021/03/23 13:10:52;;;;;;;2.72;0.90;;;16.00;76.00;;;;;;4995050;28;20206;-72
2021/03/23 13:13:24;;;;;;;4.03;1.02;;;16.00;75.30;;;;;;5000167;28;20203;-72
2021/03/23 13:15:50;;;;;;;2.85;1.17;;;15.50;78.30;;;;;;4998211;28;20314;-72